createdAt,value
2022-09-05T00:01:54.170Z,17.40
2022-09-05T00:04:37.486Z,17.40
2022-09-05T00:07:50.655Z,17.40
2022-09-05T00:11:41.754Z,17.30
2022-09-05T00:14:34.398Z,17.30
2022-09-05T00:17:30.751Z,17.30
2022-09-05T00:24:32.146Z,17.30
2022-09-05T00:24:36.938Z,17.30
2022-09-05T00:27:06.271Z,17.30
2022-09-05T00:31:06.551Z,17.30
2022-09-05T00:33:17.328Z,17.20
2022-09-05T00:36:34.307Z,17.20
2022-09-05T00:39:06.335Z,17.20
2022-09-05T00:41:34.482Z,17.20
2022-09-05T00:44:02.904Z,17.20
2022-09-05T00:46:44.713Z,17.20
2022-09-05T00:49:26.206Z,17.10
2022-09-05T00:52:29.518Z,17.10
2022-09-05T00:55:18.434Z,17.10
2022-09-05T00:58:14.254Z,17.10
2022-09-05T01:01:00.850Z,17.00
2022-09-05T01:03:55.875Z,16.90
2022-09-05T01:06:28.271Z,16.80
2022-09-05T01:09:07.364Z,16.80
2022-09-05T01:12:03.853Z,16.70
2022-09-05T01:14:43.701Z,16.70
2022-09-05T01:17:44.354Z,16.60
2022-09-05T01:20:39.519Z,16.60
2022-09-05T01:23:33.857Z,16.50
2022-09-05T01:26:06.094Z,16.40
2022-09-05T01:29:16.637Z,16.30
2022-09-05T01:31:58.154Z,16.20
2022-09-05T01:34:44.271Z,16.20
2022-09-05T01:37:26.594Z,16.10
2022-09-05T01:40:17.050Z,16.10
2022-09-05T01:43:02.280Z,16.00
2022-09-05T01:45:47.275Z,16.00
2022-09-05T01:48:30.992Z,15.90
2022-09-05T01:51:29.526Z,15.90
2022-09-05T01:54:30.021Z,15.90
2022-09-05T01:57:12.236Z,15.90
2022-09-05T01:59:55.818Z,15.90
2022-09-05T02:02:32.597Z,15.90
2022-09-05T02:05:47.571Z,15.90
2022-09-05T02:08:17.289Z,16.00
2022-09-05T02:11:05.879Z,16.00
2022-09-05T02:13:38.059Z,16.00
2022-09-05T02:16:07.936Z,16.00
2022-09-05T02:18:45.588Z,15.90
2022-09-05T02:21:30.151Z,15.90
2022-09-05T02:24:32.274Z,15.90
2022-09-05T02:28:05.588Z,15.80
2022-09-05T02:30:25.632Z,15.80
2022-09-05T02:33:11.284Z,15.80
2022-09-05T02:35:55.211Z,15.80
2022-09-05T02:44:48.220Z,15.80
2022-09-05T02:45:06.686Z,15.80
2022-09-05T02:45:21.829Z,15.80
2022-09-05T02:47:23.791Z,15.80
2022-09-05T02:52:14.207Z,15.80
2022-09-05T02:57:33.416Z,15.70
2022-09-05T02:57:42.126Z,15.70
2022-09-05T02:59:10.592Z,15.70
2022-09-05T03:02:06.660Z,15.70
2022-09-05T03:04:51.426Z,15.70
2022-09-05T03:07:43.119Z,15.70
2022-09-05T03:10:26.675Z,15.70
2022-09-05T03:13:04.217Z,15.70
2022-09-05T03:15:49.973Z,15.70
2022-09-05T03:19:05.206Z,15.70
2022-09-05T03:21:54.179Z,15.70
2022-09-05T03:24:56.248Z,15.70
2022-09-05T03:27:53.843Z,15.60
2022-09-05T03:30:43.571Z,15.60
2022-09-05T03:33:37.940Z,15.60
2022-09-05T03:36:52.508Z,15.60
2022-09-05T03:40:15.232Z,15.60
2022-09-05T03:43:11.014Z,15.60
2022-09-05T03:45:57.833Z,15.60
2022-09-05T03:50:15.351Z,15.50
2022-09-05T03:57:05.156Z,15.40
2022-09-05T03:57:10.745Z,15.40
2022-09-05T03:59:06.185Z,15.40
2022-09-05T04:04:33.762Z,15.40
2022-09-05T04:08:13.434Z,15.40
2022-09-05T04:08:23.655Z,15.40
2022-09-05T04:10:42.175Z,15.40
2022-09-05T04:13:26.979Z,15.40
2022-09-05T04:16:07.939Z,15.40
2022-09-05T04:18:41.696Z,15.30
2022-09-05T04:21:27.942Z,15.30
2022-09-05T04:24:06.762Z,15.20
2022-09-05T04:26:54.595Z,15.20
2022-09-05T04:29:39.667Z,15.20
2022-09-05T04:32:18.956Z,15.20
2022-09-05T04:35:24.558Z,15.20
2022-09-05T04:37:55.180Z,15.10
2022-09-05T04:40:47.972Z,15.10
2022-09-05T04:43:32.880Z,15.10
2022-09-05T04:46:21.328Z,15.00
2022-09-05T04:49:09.631Z,15.00
2022-09-05T04:52:00.253Z,15.00
2022-09-05T04:54:48.674Z,15.00
2022-09-05T04:58:06.944Z,14.90
2022-09-05T05:06:00.031Z,14.90
2022-09-05T05:06:02.382Z,14.90
2022-09-05T05:06:44.969Z,14.90
2022-09-05T05:09:34.136Z,15.00
2022-09-05T05:18:00.194Z,14.90
2022-09-05T05:18:12.353Z,14.90
2022-09-05T05:18:36.728Z,14.90
2022-09-05T05:21:13.644Z,14.90
2022-09-05T05:23:42.664Z,14.90
2022-09-05T05:26:22.016Z,14.90
2022-09-05T05:29:03.926Z,14.90
2022-09-05T05:31:33.275Z,14.80
2022-09-05T05:34:09.694Z,14.80
2022-09-05T05:37:10.950Z,14.90
2022-09-05T05:39:44.864Z,14.90
2022-09-05T05:42:20.980Z,15.00
2022-09-05T05:44:53.880Z,15.00
2022-09-05T05:47:44.539Z,15.10
2022-09-05T05:50:33.209Z,15.10
2022-09-05T05:53:36.328Z,15.20
2022-09-05T05:56:35.504Z,15.30
2022-09-05T05:59:02.128Z,15.40
2022-09-05T06:01:46.477Z,15.60
2022-09-05T06:04:44.766Z,15.60
2022-09-05T06:07:45.074Z,15.80
2022-09-05T06:14:48.991Z,16.00
2022-09-05T06:15:06.829Z,16.20
2022-09-05T06:17:06.745Z,16.30
2022-09-05T06:20:47.473Z,16.40
2022-09-05T06:23:01.056Z,16.50
2022-09-05T06:26:02.360Z,16.60
2022-09-05T06:28:56.630Z,16.70
2022-09-05T06:32:03.102Z,16.70
2022-09-05T06:35:09.856Z,16.80
2022-09-05T06:37:42.282Z,16.90
2022-09-05T06:40:12.074Z,17.00
2022-09-05T06:43:06.743Z,17.20
2022-09-05T06:45:40.187Z,17.30
2022-09-05T06:48:27.849Z,17.40
2022-09-05T06:51:44.912Z,17.50
2022-09-05T06:55:00.253Z,17.60
2022-09-05T06:57:55.573Z,17.80
2022-09-05T07:00:31.764Z,17.90
2022-09-05T07:03:10.163Z,18.00
2022-09-05T07:06:07.621Z,18.10
2022-09-05T07:08:48.174Z,18.20
2022-09-05T07:11:25.955Z,18.20
2022-09-05T07:14:32.161Z,18.40
2022-09-05T07:17:19.343Z,18.50
2022-09-05T07:19:55.784Z,18.60
2022-09-05T07:22:49.940Z,18.70
2022-09-05T07:25:26.278Z,18.80
2022-09-05T07:28:27.149Z,18.80
2022-09-05T07:30:58.002Z,18.90
2022-09-05T07:33:29.770Z,19.00
2022-09-05T07:36:14.196Z,19.00
2022-09-05T07:38:54.883Z,19.10
2022-09-05T07:41:32.632Z,19.10
2022-09-05T07:44:06.843Z,19.20
2022-09-05T07:46:39.667Z,19.30
2022-09-05T07:49:17.059Z,19.40
2022-09-05T07:56:46.434Z,19.40
2022-09-05T07:57:02.240Z,19.50
2022-09-05T07:57:51.174Z,19.60
2022-09-05T08:00:26.873Z,19.70
2022-09-05T08:02:59.222Z,19.70
2022-09-05T08:05:35.152Z,19.90
2022-09-05T08:08:08.746Z,20.00
2022-09-05T08:11:25.476Z,20.10
2022-09-05T08:13:46.443Z,20.20
2022-09-05T08:16:19.415Z,20.30
2022-09-05T08:18:56.573Z,20.40
2022-09-05T08:21:39.909Z,20.60
2022-09-05T08:24:47.272Z,20.60
2022-09-05T08:27:25.424Z,20.70
2022-09-05T08:30:26.131Z,20.80
2022-09-05T08:33:11.048Z,20.90
2022-09-05T08:35:47.707Z,21.10
2022-09-05T08:38:15.719Z,21.20
2022-09-05T08:40:51.663Z,21.50
2022-09-05T08:46:35.532Z,21.80
2022-09-05T08:46:48.674Z,22.10
2022-09-05T08:49:37.830Z,22.30
2022-09-05T08:52:28.134Z,22.50
2022-09-05T08:55:24.482Z,22.70
2022-09-05T08:58:20.983Z,22.90
2022-09-05T09:01:00.241Z,23.00
2022-09-05T09:03:44.578Z,23.10
2022-09-05T09:06:34.156Z,23.20
2022-09-05T09:09:13.293Z,23.30
2022-09-05T09:11:48.995Z,23.40
2022-09-05T09:14:30.813Z,23.60
2022-09-05T09:17:04.946Z,23.80
2022-09-05T09:20:09.551Z,23.90
2022-09-05T09:22:48.043Z,24.10
2022-09-05T09:25:17.831Z,24.30
2022-09-05T09:28:48.959Z,24.60
2022-09-05T09:31:03.249Z,25.10
2022-09-05T09:33:41.600Z,25.80
2022-09-05T09:36:23.570Z,26.30
2022-09-05T09:39:44.434Z,26.90
2022-09-05T09:43:07.082Z,27.40
2022-09-05T09:46:09.823Z,28.00
2022-09-05T09:48:48.930Z,28.50
2022-09-05T09:51:34.084Z,29.00
2022-09-05T09:54:42.455Z,29.40
2022-09-05T09:57:31.408Z,29.80
2022-09-05T10:00:23.888Z,30.10
2022-09-05T10:04:23.821Z,30.60
2022-09-05T10:10:34.262Z,30.60
2022-09-05T10:11:22.713Z,30.80
2022-09-05T10:12:40.405Z,30.90
2022-09-05T10:15:31.679Z,31.20
2022-09-05T10:18:05.135Z,31.40
2022-09-05T10:20:57.918Z,31.80
2022-09-05T10:24:11.624Z,31.90
2022-09-05T10:27:25.296Z,32.00
2022-09-05T10:30:10.632Z,32.20
2022-09-05T10:35:09.219Z,32.60
2022-09-05T10:35:37.501Z,33.10
2022-09-05T10:38:12.354Z,33.00
2022-09-05T10:41:19.829Z,33.40
2022-09-05T10:43:32.308Z,33.50
2022-09-05T10:46:10.414Z,33.70
2022-09-05T10:48:53.335Z,33.70
2022-09-05T10:52:17.858Z,34.10
2022-09-05T10:54:56.069Z,34.20
2022-09-05T10:58:03.103Z,34.20
2022-09-05T11:02:22.124Z,34.40
2022-09-05T11:03:44.124Z,34.30
2022-09-05T11:06:16.497Z,34.10
2022-09-05T11:09:03.532Z,34.50
2022-09-05T11:11:47.811Z,34.40
2022-09-05T11:14:35.094Z,34.20
2022-09-05T11:17:24.493Z,34.10
2022-09-05T11:20:35.368Z,34.40
2022-09-05T11:23:10.372Z,34.20
2022-09-05T11:25:40.853Z,34.00
2022-09-05T11:28:18.624Z,33.90
2022-09-05T11:30:53.535Z,34.10
2022-09-05T11:39:20.603Z,33.90
2022-09-05T11:40:06.903Z,34.10
2022-09-05T11:40:32.539Z,33.90
2022-09-05T11:43:21.576Z,33.70
2022-09-05T11:46:12.930Z,33.50
2022-09-05T11:49:24.180Z,33.40
2022-09-05T11:52:23.275Z,33.20
2022-09-05T11:55:20.934Z,33.10
2022-09-05T12:00:50.260Z,32.90
2022-09-05T12:03:59.844Z,32.80
2022-09-05T12:06:47.874Z,32.30
2022-09-05T12:09:41.332Z,32.30
2022-09-05T12:12:39.202Z,32.40
2022-09-05T12:15:34.246Z,32.10
2022-09-05T12:18:33.217Z,32.00
2022-09-05T12:21:19.592Z,31.90
2022-09-05T12:25:17.301Z,31.70
2022-09-05T12:27:39.427Z,31.60
2022-09-05T12:29:59.972Z,31.60
2022-09-05T12:33:45.507Z,31.70
2022-09-05T12:36:04.141Z,31.50
2022-09-05T12:40:48.282Z,31.30
2022-09-05T12:40:55.751Z,32.90
2022-09-05T12:42:10.524Z,31.30
2022-09-05T12:45:37.765Z,31.00
2022-09-05T12:48:22.421Z,31.00
2022-09-05T12:51:11.127Z,30.90
2022-09-05T12:53:54.913Z,30.80
2022-09-05T13:02:16.008Z,30.70
2022-09-05T13:02:59.212Z,30.50
2022-09-05T13:03:11.485Z,30.30
2022-09-05T13:05:26.843Z,30.20
2022-09-05T13:07:58.168Z,30.20
2022-09-05T13:13:18.607Z,30.10
2022-09-05T13:14:54.122Z,29.90
2022-09-05T13:16:24.045Z,29.70
2022-09-05T13:19:08.271Z,29.70
2022-09-05T13:21:40.439Z,29.80
2022-09-05T13:24:14.314Z,29.90
2022-09-05T13:27:07.108Z,29.90
2022-09-05T13:30:23.284Z,29.90
2022-09-05T13:37:55.157Z,30.00
2022-09-05T13:38:02.195Z,30.00
2022-09-05T13:38:49.327Z,29.90
2022-09-05T13:41:28.382Z,29.80
2022-09-05T13:44:00.506Z,29.80
2022-09-05T13:47:00.752Z,29.70
2022-09-05T13:49:40.503Z,29.60
2022-09-05T13:52:25.770Z,29.50
2022-09-05T13:55:16.977Z,29.50
2022-09-05T13:57:55.430Z,29.60
2022-09-05T14:00:38.560Z,29.40
2022-09-05T14:03:40.529Z,29.50
2022-09-05T14:06:46.576Z,29.40
2022-09-05T14:12:25.661Z,29.40
2022-09-05T14:15:15.678Z,29.40
2022-09-05T14:18:20.571Z,29.30
2022-09-05T14:21:18.820Z,29.20
2022-09-05T14:24:03.215Z,29.20
2022-09-05T14:26:41.056Z,29.10
2022-09-05T14:29:14.028Z,29.00
2022-09-05T14:37:35.214Z,28.80
2022-09-05T14:37:41.130Z,28.70
2022-09-05T14:38:15.843Z,28.80
2022-09-05T14:41:20.444Z,28.80
2022-09-05T14:44:24.729Z,28.70
2022-09-05T14:47:08.340Z,28.70
2022-09-05T14:50:17.816Z,28.60
2022-09-05T14:57:23.951Z,28.50
2022-09-05T15:02:52.813Z,28.50
2022-09-05T15:02:57.524Z,28.40
2022-09-05T15:05:11.603Z,28.40
2022-09-05T15:07:47.402Z,28.50
2022-09-05T15:12:16.260Z,28.50
2022-09-05T15:13:20.554Z,28.50
2022-09-05T15:16:02.271Z,28.50
2022-09-05T15:18:45.925Z,28.50
2022-09-05T15:21:33.084Z,28.60
2022-09-05T15:24:24.209Z,28.60
2022-09-05T15:26:56.892Z,28.70
2022-09-05T15:29:30.269Z,28.70
2022-09-05T15:32:22.562Z,28.80
2022-09-05T15:34:51.306Z,28.80
2022-09-05T15:37:40.335Z,28.80
2022-09-05T15:40:22.510Z,28.80
2022-09-05T15:42:56.538Z,28.80
2022-09-05T15:45:28.819Z,28.80
2022-09-05T15:48:18.349Z,28.90
2022-09-05T15:50:51.128Z,28.90
2022-09-05T15:53:38.363Z,28.90
2022-09-05T15:56:10.899Z,28.80
2022-09-05T15:58:53.568Z,28.80
2022-09-05T16:01:48.555Z,28.70
2022-09-05T16:08:25.123Z,28.80
2022-09-05T16:10:45.591Z,28.60
2022-09-05T16:10:49.146Z,28.70
2022-09-05T16:12:49.553Z,28.60
2022-09-05T16:17:37.729Z,28.60
2022-09-05T16:23:27.396Z,28.40
2022-09-05T16:23:34.959Z,28.50
2022-09-05T16:24:05.284Z,28.40
2022-09-05T16:26:39.901Z,28.30
2022-09-05T16:29:22.666Z,28.20
2022-09-05T16:32:07.549Z,28.20
2022-09-05T16:34:34.179Z,28.10
2022-09-05T16:37:10.108Z,28.10
2022-09-05T16:39:54.225Z,28.00
2022-09-05T16:42:47.079Z,27.90
2022-09-05T16:45:33.198Z,27.90
2022-09-05T16:48:02.611Z,27.80
2022-09-05T16:50:50.703Z,27.70
2022-09-05T16:53:53.325Z,27.50
2022-09-05T16:56:48.846Z,27.40
2022-09-05T16:59:21.704Z,27.30
2022-09-05T17:02:11.160Z,27.20
2022-09-05T17:05:03.962Z,27.10
2022-09-05T17:07:53.662Z,27.10
2022-09-05T17:10:31.349Z,27.00
2022-09-05T17:12:58.215Z,26.90
2022-09-05T17:15:35.346Z,26.80
2022-09-05T17:18:22.090Z,26.80
2022-09-05T17:20:55.453Z,26.70
2022-09-05T17:29:03.307Z,26.70
2022-09-05T17:29:49.042Z,26.60
2022-09-05T17:32:48.076Z,26.50
2022-09-05T17:35:18.512Z,26.40
2022-09-05T17:38:11.236Z,26.30
2022-09-05T17:41:03.316Z,26.30
2022-09-05T17:43:32.985Z,26.20
2022-09-05T17:46:11.659Z,26.10
2022-09-05T17:49:17.575Z,26.10
2022-09-05T17:51:34.398Z,26.00
2022-09-05T17:54:07.548Z,26.00
2022-09-05T17:56:38.224Z,26.00
2022-09-05T17:59:25.164Z,25.90
2022-09-05T18:02:07.072Z,25.80
2022-09-05T18:04:39.838Z,25.80
2022-09-05T18:07:51.906Z,25.70
2022-09-05T18:10:27.391Z,25.70
2022-09-05T18:13:13.551Z,25.60
2022-09-05T18:15:41.232Z,25.50
2022-09-05T18:21:25.895Z,25.40
2022-09-05T18:24:01.686Z,25.40
2022-09-05T18:26:36.976Z,25.30
2022-09-05T18:29:31.059Z,25.20
2022-09-05T18:32:11.901Z,25.20
2022-09-05T18:34:39.968Z,25.10
2022-09-05T18:37:37.780Z,25.00
2022-09-05T18:40:36.743Z,25.00
2022-09-05T18:43:23.918Z,24.90
2022-09-05T18:45:54.768Z,24.90
2022-09-05T18:48:29.961Z,24.80
2022-09-05T18:51:13.361Z,24.70
2022-09-05T18:53:47.377Z,24.70
2022-09-05T18:56:22.610Z,24.60
2022-09-05T18:59:14.895Z,24.60
2022-09-05T19:02:08.163Z,24.40
2022-09-05T19:05:02.879Z,24.40
2022-09-05T19:07:48.309Z,24.30
2022-09-05T19:10:36.225Z,24.20
2022-09-05T19:13:16.724Z,24.20
2022-09-05T19:16:43.267Z,24.10
2022-09-05T19:19:16.135Z,24.00
2022-09-05T19:22:39.494Z,24.00
2022-09-05T19:24:46.207Z,24.10
2022-09-05T19:27:55.403Z,24.20
2022-09-05T19:36:50.520Z,24.50
2022-09-05T19:36:52.294Z,24.40
2022-09-05T19:36:55.955Z,24.70
2022-09-05T19:38:39.687Z,24.70
2022-09-05T19:47:29.255Z,24.70
2022-09-05T19:47:48.038Z,24.50
2022-09-05T19:47:56.324Z,24.60
2022-09-05T19:50:22.701Z,24.40
2022-09-05T19:52:53.179Z,24.40
2022-09-05T19:55:22.400Z,24.50
2022-09-05T19:58:05.220Z,24.50
2022-09-05T20:00:41.092Z,24.40
2022-09-05T20:03:08.810Z,24.40
2022-09-05T20:05:40.792Z,24.30
2022-09-05T20:08:13.275Z,24.30
2022-09-05T20:10:40.882Z,24.30
2022-09-05T20:13:23.399Z,24.20
2022-09-05T20:15:52.468Z,24.20
2022-09-05T20:18:24.029Z,24.20
2022-09-05T20:20:54.384Z,24.10
2022-09-05T20:23:28.043Z,24.00
2022-09-05T20:25:56.351Z,24.00
2022-09-05T20:28:26.439Z,24.00
2022-09-05T20:30:59.782Z,23.90
2022-09-05T20:33:52.043Z,23.80
2022-09-05T20:43:11.815Z,23.80
2022-09-05T20:43:23.465Z,23.70
2022-09-05T20:43:36.548Z,23.60
2022-09-05T20:45:03.926Z,23.50
2022-09-05T20:52:55.111Z,23.50
2022-09-05T20:54:13.410Z,23.30
2022-09-05T20:54:17.180Z,23.40
2022-09-05T20:56:23.970Z,23.30
2022-09-05T20:58:51.794Z,23.10
2022-09-05T21:01:27.320Z,23.10
2022-09-05T21:03:58.853Z,23.00
2022-09-05T21:06:33.399Z,22.90
2022-09-05T21:09:24.766Z,22.80
2022-09-05T21:11:56.256Z,22.70
2022-09-05T21:14:24.802Z,22.60
2022-09-05T21:17:15.073Z,22.50
2022-09-05T21:19:51.583Z,22.20
2022-09-05T21:22:24.990Z,22.00
2022-09-05T21:25:19.935Z,21.80
2022-09-05T21:27:58.444Z,21.70
2022-09-05T21:30:31.177Z,21.60
2022-09-05T21:33:07.690Z,21.50
2022-09-05T21:35:45.906Z,21.50
2022-09-05T21:38:15.745Z,21.40
2022-09-05T21:40:48.354Z,21.40
2022-09-05T21:47:33.396Z,21.30
2022-09-05T21:47:46.244Z,21.30
2022-09-05T21:48:56.880Z,21.20
2022-09-05T21:51:27.579Z,21.20
2022-09-05T21:59:19.094Z,21.20
2022-09-05T21:59:21.842Z,21.20
2022-09-05T21:59:47.479Z,21.20
2022-09-05T22:02:17.330Z,21.10
2022-09-05T22:04:44.775Z,21.10
2022-09-05T22:07:32.336Z,21.10
2022-09-05T22:10:01.010Z,21.10
2022-09-05T22:12:33.686Z,21.10
2022-09-05T22:15:10.146Z,21.00
2022-09-05T22:17:51.224Z,21.10
2022-09-05T22:20:20.949Z,21.00
2022-09-05T22:22:56.399Z,21.00
2022-09-05T22:25:28.914Z,21.00
2022-09-05T22:28:10.401Z,21.00
2022-09-05T22:30:37.098Z,21.00
2022-09-05T22:33:06.734Z,21.00
2022-09-05T22:35:35.373Z,21.00
2022-09-05T22:38:10.896Z,21.00
2022-09-05T22:40:40.848Z,21.10
2022-09-05T22:43:09.724Z,21.10
2022-09-05T22:45:38.179Z,21.10
2022-09-05T22:48:10.509Z,21.10
2022-09-05T22:50:37.909Z,21.10
2022-09-05T22:53:07.052Z,21.00
2022-09-05T22:55:39.638Z,21.00
2022-09-05T22:58:08.325Z,21.00
2022-09-05T23:00:35.775Z,21.00
2022-09-05T23:03:04.659Z,21.00
2022-09-05T23:05:32.727Z,21.00
2022-09-05T23:08:04.372Z,20.90
2022-09-05T23:10:31.700Z,20.90
2022-09-05T23:12:59.194Z,20.90
2022-09-05T23:15:26.492Z,21.10
2022-09-05T23:17:54.860Z,21.00
2022-09-05T23:20:22.510Z,21.00
2022-09-05T23:22:49.459Z,21.00
2022-09-05T23:25:16.706Z,20.90
2022-09-05T23:27:43.579Z,21.00
2022-09-05T23:30:11.307Z,20.90
2022-09-05T23:32:47.140Z,20.90
2022-09-05T23:35:14.810Z,20.80
2022-09-05T23:37:44.102Z,20.80
2022-09-05T23:40:13.454Z,20.80
2022-09-05T23:42:41.060Z,20.70
2022-09-05T23:45:08.911Z,20.70
2022-09-05T23:47:36.515Z,20.70
2022-09-05T23:50:04.374Z,20.60
2022-09-05T23:52:31.083Z,20.60
2022-09-05T23:54:57.742Z,20.50
2022-09-05T23:57:24.448Z,20.40
2022-09-05T23:59:52.457Z,20.50
